Главная страница
METAR-TAF:

METAR-TAF

Аэропорты :

Уоллис, Франция

широта: 13-14S, долгота: 176-10W, высота над уровнем моря: 23 м

METAR: отсутствует

Время: 08:42 (20:42 UTC)

Прогноз

Эта сводка был подготовлена 3 часа и 42 минут назад, в 17:00 UTC
Прогноз действительный с 24-го 18 UTC до 25-го 18 UTC
Ветер 2 Узел переменных направлений
Видимость 10 км и более
Отдельные облака на высоте 2000 фута
Отдельные облака на высоте 4800 фута
изменения
С 25-го 00 UTC до 25-го 02 UTC
Ветер 10 Узел от юго-восточный
Вероятность 30% :
временами
С 25-го 00 UTC до 25-го 03 UTC
небольшая облачность на высоте 1800 фута, мощно-кучевые.
ливневые дожди

TAF: NLWW 241700Z 2418/2518 VRB02KT 9999 SCT020 SCT048 BECMG 2500/2502 14010KT PROB30 TEMPO 2500/2503 SHRA FEW018TCU

Метеонаблюдения и прогнозы для более 4000 аэропортов (сводки METAR и TAF).

Имеющиеся станции представлены на карте желтыми и красными точками.

Чтобы увидеть название станции, наведите на нее мышь.

Затем щелкните, чтобы увидеть метеонаблюдения и метеопрогнозы.

Управление картой: чтобы увеличить масштаб, щелкните зеленые кнопки с черным крестиком; чтобы уменьшить масштаб, щелкните зеленую кнопку с тире; для просмотра соседних карт щелкайте зеленые стрелки.


METAR-TAF: